sensor_id;sensor_type;location;lat;lon;timestamp;pressure;altitude;pressure_sealevel;temperature;humidity
53671;BME280;39571;48.612;8.088;2023-05-21T07:36:41;99448.47;;;17.96;100.00
53671;BME280;39571;48.612;8.088;2023-05-21T07:39:07;99448.00;;;18.24;100.00
53671;BME280;39571;48.612;8.088;2023-05-21T07:41:32;99447.53;;;18.50;100.00
53671;BME280;39571;48.612;8.088;2023-05-21T07:43:57;99448.44;;;18.67;100.00
53671;BME280;39571;48.612;8.088;2023-05-21T07:46:25;99448.09;;;18.74;100.00
53671;BME280;39571;48.612;8.088;2023-05-21T07:48:50;99441.84;;;18.92;100.00
53671;BME280;39571;48.612;8.088;2023-05-21T07:51:16;99445.50;;;19.06;100.00
53671;BME280;39571;48.612;8.088;2023-05-21T07:53:41;99438.03;;;19.30;100.00
53671;BME280;39571;48.612;8.088;2023-05-21T07:56:07;99441.56;;;19.46;100.00
53671;BME280;39571;48.612;8.088;2023-05-21T07:58:32;99438.09;;;19.61;100.00
53671;BME280;39571;48.612;8.088;2023-05-21T08:00:59;99435.84;;;19.70;100.00
53671;BME280;39571;48.612;8.088;2023-05-21T08:03:25;99435.00;;;19.85;100.00
53671;BME280;39571;48.612;8.088;2023-05-21T08:05:51;99438.06;;;19.93;100.00
53671;BME280;39571;48.612;8.088;2023-05-21T08:08:17;99431.72;;;20.11;100.00
53671;BME280;39571;48.612;8.088;2023-05-21T08:10:43;99425.38;;;20.29;100.00
53671;BME280;39571;48.612;8.088;2023-05-21T08:13:10;99432.53;;;20.43;100.00
53671;BME280;39571;48.612;8.088;2023-05-21T08:15:36;99439.47;;;20.45;100.00
53671;BME280;39571;48.612;8.088;2023-05-21T08:18:01;99427.72;;;20.49;100.00
53671;BME280;39571;48.612;8.088;2023-05-21T08:20:26;99428.88;;;20.59;100.00
53671;BME280;39571;48.612;8.088;2023-05-21T08:22:53;99438.47;;;20.62;100.00
53671;BME280;39571;48.612;8.088;2023-05-21T08:25:18;99436.41;;;20.67;100.00
53671;BME280;39571;48.612;8.088;2023-05-21T08:27:44;99435.34;;;20.70;100.00
53671;BME280;39571;48.612;8.088;2023-05-21T08:30:09;99429.66;;;20.76;100.00
53671;BME280;39571;48.612;8.088;2023-05-21T08:32:38;99423.78;;;20.71;100.00
53671;BME280;39571;48.612;8.088;2023-05-21T08:35:03;99429.41;;;20.80;100.00
53671;BME280;39571;48.612;8.088;2023-05-21T08:37:29;99425.19;;;20.76;100.00
53671;BME280;39571;48.612;8.088;2023-05-21T08:39:54;99429.47;;;20.64;100.00
53671;BME280;39571;48.612;8.088;2023-05-21T08:42:46;99426.22;;;20.59;100.00
53671;BME280;39571;48.612;8.088;2023-05-21T08:45:13;99426.63;;;20.67;100.00
53671;BME280;39571;48.612;8.088;2023-05-21T08:47:41;99428.34;;;20.69;100.00
53671;BME280;39571;48.612;8.088;2023-05-21T08:50:14;99432.72;;;20.84;100.00
53671;BME280;39571;48.612;8.088;2023-05-21T08:52:40;99430.66;;;20.89;100.00
53671;BME280;39571;48.612;8.088;2023-05-21T08:55:07;99429.00;;;20.86;100.00
53671;BME280;39571;48.612;8.088;2023-05-21T08:57:33;99419.63;;;20.95;100.00
53671;BME280;39571;48.612;8.088;2023-05-21T08:59:59;99421.16;;;20.99;100.00
53671;BME280;39571;48.612;8.088;2023-05-21T09:02:26;99431.44;;;21.05;100.00
53671;BME280;39571;48.612;8.088;2023-05-21T09:04:52;99429.44;;;21.08;100.00
53671;BME280;39571;48.612;8.088;2023-05-21T09:07:23;99434.13;;;21.19;100.00
53671;BME280;39571;48.612;8.088;2023-05-21T09:09:55;99428.56;;;21.08;100.00
53671;BME280;39571;48.612;8.088;2023-05-21T09:12:23;99430.41;;;21.22;100.00
53671;BME280;39571;48.612;8.088;2023-05-21T09:14:51;99425.69;;;21.27;100.00
53671;BME280;39571;48.612;8.088;2023-05-21T09:17:17;99428.22;;;21.28;100.00
53671;BME280;39571;48.612;8.088;2023-05-21T09:20:06;99434.31;;;21.44;100.00
53671;BME280;39571;48.612;8.088;2023-05-21T09:22:39;99437.53;;;21.49;100.00
53671;BME280;39571;48.612;8.088;2023-05-21T09:25:05;99429.72;;;21.60;100.00
53671;BME280;39571;48.612;8.088;2023-05-21T09:27:35;99428.47;;;21.66;100.00
53671;BME280;39571;48.612;8.088;2023-05-21T09:30:04;99423.59;;;21.73;100.00
53671;BME280;39571;48.612;8.088;2023-05-21T09:32:32;99429.66;;;21.89;100.00
53671;BME280;39571;48.612;8.088;2023-05-21T09:35:05;99430.03;;;21.83;100.00
53671;BME280;39571;48.612;8.088;2023-05-21T09:37:31;99423.88;;;21.82;100.00
53671;BME280;39571;48.612;8.088;2023-05-21T09:40:09;99429.28;;;21.95;100.00
53671;BME280;39571;48.612;8.088;2023-05-21T09:42:34;99428.28;;;22.10;100.00
53671;BME280;39571;48.612;8.088;2023-05-21T09:45:00;99424.41;;;22.28;100.00
53671;BME280;39571;48.612;8.088;2023-05-21T09:47:25;99424.75;;;22.36;100.00
53671;BME280;39571;48.612;8.088;2023-05-21T09:49:50;99427.56;;;22.47;100.00
53671;BME280;39571;48.612;8.088;2023-05-21T09:52:23;99422.16;;;22.61;100.00
53671;BME280;39571;48.612;8.088;2023-05-21T09:54:50;99432.97;;;22.73;100.00
53671;BME280;39571;48.612;8.088;2023-05-21T09:57:22;99423.59;;;22.92;100.00
53671;BME280;39571;48.612;8.088;2023-05-21T09:59:49;99414.94;;;23.01;100.00
53671;BME280;39571;48.612;8.088;2023-05-21T10:02:21;99417.19;;;23.07;100.00
53671;BME280;39571;48.612;8.088;2023-05-21T10:04:50;99411.63;;;23.10;100.00
53671;BME280;39571;48.612;8.088;2023-05-21T10:07:20;99411.41;;;23.26;100.00
53671;BME280;39571;48.612;8.088;2023-05-21T10:09:52;99412.03;;;23.42;100.00
53671;BME280;39571;48.612;8.088;2023-05-21T10:12:18;99410.09;;;23.57;100.00
53671;BME280;39571;48.612;8.088;2023-05-21T10:14:50;99409.25;;;23.56;100.00
53671;BME280;39571;48.612;8.088;2023-05-21T10:17:17;99409.06;;;23.47;100.00
53671;BME280;39571;48.612;8.088;2023-05-21T10:19:45;99403.28;;;23.53;100.00
53671;BME280;39571;48.612;8.088;2023-05-21T10:22:10;99405.16;;;23.63;100.00
53671;BME280;39571;48.612;8.088;2023-05-21T10:24:38;99399.41;;;23.57;100.00
53671;BME280;39571;48.612;8.088;2023-05-21T10:27:04;99397.94;;;23.53;100.00
53671;BME280;39571;48.612;8.088;2023-05-21T10:29:31;99388.53;;;23.47;100.00
53671;BME280;39571;48.612;8.088;2023-05-21T10:31:57;99387.66;;;23.59;100.00
53671;BME280;39571;48.612;8.088;2023-05-21T10:34:26;99384.00;;;23.60;100.00
53671;BME280;39571;48.612;8.088;2023-05-21T10:36:53;99385.50;;;23.64;100.00
53671;BME280;39571;48.612;8.088;2023-05-21T10:39:20;99388.03;;;23.66;100.00
53671;BME280;39571;48.612;8.088;2023-05-21T10:45:07;99383.94;;;23.86;100.00
53671;BME280;39571;48.612;8.088;2023-05-21T10:53:36;99374.38;;;24.18;100.00
53671;BME280;39571;48.612;8.088;2023-05-21T11:01:00;99369.81;;;24.31;100.00
53671;BME280;39571;48.612;8.088;2023-05-21T11:03:27;99369.56;;;24.34;100.00
